Terminal Aerodrome Forecast
Issued by NWS

Home | Current Version | Previous Version | Text Only | Print | Product List | Glossary Off
Versions: 1 2 3 4 5 6 7 8 9 10 11 12 13 14 15 16 17 18 19 20 21 22 23 24 25 26 27 28 29

000
FTUS43 KLOT 200155 AAB
TAFORD
TAF AMD
KORD 200155Z 2002/2106 09009KT P6SM FEW040 SCT250
     FM200230 11005KT 5SM -SHRA VCTS SCT040 BKN100CB
      TEMPO 2003/2004 32020G40KT 3SM -TSRA BKN040 BKN100CB
     FM200400 27009KT P6SM SCT100 BKN250
     FM200700 21007KT P6SM SCT080 BKN150
      TEMPO 2010/2012 3SM TSRA SCT020 OVC060CB
     FM201400 23010KT P6SM SCT040 BKN250
     FM201900 30010KT P6SM SCT040 PROB30 2019/2023 4SM TSRA BKN040CB
     FM202300 05008KT P6SM BKN050=

USA.gov is the U.S. government's official web portal to all federal, state and local government web resources and services.